Portada
METAR-TAF:

METAR-TAF

Aeroports :

Çanak Kale, Turquia

latitud: 40-08N, longitud: 026-24E, altitud: 3 m

Observació

L'informe es va fer fa 1 hora i 28 minuts, a les 21:50 UTC
Temperatura 5°C
Humitat 93%
Pressió 1019 hPa
Visibilitat 10 km o més
sense núvols per sota de 1500 mi sense presència de cumulonimbus.

METAR: LTBH 082150Z /////KT CAVOK 05/04 Q1019

Hora: 02:18 (23:18 UTC)

Pronòstic

L'informe es va fer fa 3 hores i 38 minuts, a les 19:40 UTC
Pronòstic vàlid del 08 a les 21 UTC al 09 a les 06 UTC
Vent 2 kt amb direcció variable
Visibilitat 10 km o més
sense núvols per sota de 1500 mi sense presència de cumulonimbus.
Evolucionant progressivament
l' 09 a les 03 UTC al 09 a les 05 UTC
Visibilitat: 4000 m
boirina

TAF: LTBH 081940Z 0821/0906 VRB02KT CAVOK BECMG 0903/0905 4000 BR

Observacions i pronòstics meteorològics de més de 4000 aeroports (METAR i TAF).

Les estacions disponibles són els punts grocs i vermells al mapa.

Posi el ratolí al punt desitjat per veure el nom de l'estació.

Feu clic per veure les observacions i els pronòstics meteorològics.

Per canviar el mapa: feu clic els botons verds amb una creu de color negre per apropar; al botó verd amb un guió per allunyar la imatge; o en les fletxes verdes per a mapes adjacents.


METAR-TAF: